createdAt,value
2019-05-20T00:00:56.253Z,61.20
2019-05-20T00:03:27.331Z,61.70
2019-05-20T00:05:58.497Z,61.40
2019-05-20T00:08:29.312Z,61.20
2019-05-20T00:11:00.420Z,60.80
2019-05-20T00:13:31.564Z,61.70
2019-05-20T00:16:02.431Z,61.40
2019-05-20T00:18:33.591Z,61.40
2019-05-20T00:21:04.916Z,61.00
2019-05-20T00:23:37.105Z,60.90
2019-05-20T00:26:08.191Z,61.20
2019-05-20T00:28:39.346Z,60.90
2019-05-20T00:31:11.173Z,60.70
2019-05-20T00:33:42.383Z,60.90
2019-05-20T00:36:16.648Z,60.80
2019-05-20T00:45:20.586Z,60.30
2019-05-20T00:47:51.518Z,60.40
2019-05-20T00:50:23.845Z,60.30
2019-05-20T00:52:58.317Z,60.00
2019-05-20T00:55:32.042Z,59.80
2019-05-20T00:58:04.130Z,59.50
2019-05-20T01:00:36.175Z,59.50
2019-05-20T01:03:07.488Z,59.30
2019-05-20T01:05:39.450Z,59.10
2019-05-20T01:08:10.628Z,59.00
2019-05-20T01:10:41.661Z,59.10
2019-05-20T01:13:12.701Z,59.00
2019-05-20T01:15:47.526Z,59.00
2019-05-20T01:18:18.707Z,58.90
2019-05-20T01:20:57.457Z,58.70
2019-05-20T01:23:30.139Z,58.40
2019-05-20T01:26:01.237Z,58.40
2019-05-20T01:28:32.142Z,58.30
2019-05-20T01:31:03.647Z,57.90
2019-05-20T01:33:34.713Z,58.10
2019-05-20T01:36:06.205Z,57.90
2019-05-20T01:38:37.489Z,57.80
2019-05-20T01:41:08.513Z,58.00
2019-05-20T01:43:41.072Z,58.00
2019-05-20T01:46:12.664Z,57.80
2019-05-20T01:48:43.922Z,57.20
2019-05-20T01:51:15.129Z,57.30
2019-05-20T01:53:48.753Z,57.40
2019-05-20T01:56:19.726Z,56.30
2019-05-20T01:58:50.848Z,56.90
2019-05-20T02:01:22.598Z,56.80
2019-05-20T02:03:56.421Z,56.90
2019-05-20T02:06:29.838Z,56.60
2019-05-20T02:09:00.219Z,56.80
2019-05-20T02:11:31.306Z,56.60
2019-05-20T02:14:04.872Z,56.00
2019-05-20T02:16:36.487Z,56.30
2019-05-20T02:19:07.996Z,55.80
2019-05-20T02:21:39.663Z,56.10
2019-05-20T02:24:15.757Z,56.10
2019-05-20T02:26:46.905Z,56.00
2019-05-20T02:29:20.702Z,55.80
2019-05-20T02:31:52.138Z,55.80
2019-05-20T02:37:55.822Z,55.10
2019-05-20T02:46:52.282Z,53.30
2019-05-20T02:49:23.587Z,54.40
2019-05-20T02:51:54.817Z,54.10
2019-05-20T02:54:29.607Z,53.80
2019-05-20T02:57:01.016Z,53.70
2019-05-20T02:59:32.644Z,54.60
2019-05-20T03:02:04.999Z,53.80
2019-05-20T03:04:36.377Z,52.00
2019-05-20T03:07:07.575Z,53.60
2019-05-20T03:09:41.625Z,53.30
2019-05-20T03:12:14.020Z,53.10
2019-05-20T03:14:47.233Z,53.00
2019-05-20T03:17:17.651Z,51.70
2019-05-20T03:19:49.413Z,53.10
2019-05-20T03:22:20.738Z,53.00
2019-05-20T03:24:54.963Z,51.80
2019-05-20T03:27:26.166Z,51.70
2019-05-20T03:29:57.136Z,52.70
2019-05-20T03:32:28.033Z,52.50
2019-05-20T03:35:02.734Z,51.60
2019-05-20T03:37:36.836Z,53.00
2019-05-20T03:40:08.728Z,51.40
2019-05-20T03:42:45.681Z,51.10
2019-05-20T03:45:17.229Z,52.20
2019-05-20T03:47:50.916Z,52.20
2019-05-20T03:50:22.235Z,52.00
2019-05-20T03:52:53.451Z,50.90
2019-05-20T03:55:25.978Z,51.80
2019-05-20T03:57:59.452Z,50.30
2019-05-20T04:00:37.026Z,50.70
2019-05-20T04:03:20.381Z,50.80
2019-05-20T04:05:44.050Z,51.10
2019-05-20T04:08:15.551Z,51.80
2019-05-20T04:10:47.707Z,50.30
2019-05-20T04:13:20.036Z,50.60
2019-05-20T04:15:51.357Z,51.00
2019-05-20T04:18:22.730Z,50.70
2019-05-20T04:21:07.011Z,48.80
2019-05-20T04:23:38.313Z,48.10
2019-05-20T04:26:09.802Z,50.60
2019-05-20T04:28:41.885Z,49.80
2019-05-20T04:31:14.211Z,50.30
2019-05-20T04:33:46.381Z,50.60
2019-05-20T04:36:18.217Z,50.00
2019-05-20T04:38:49.557Z,49.40
2019-05-20T04:41:21.776Z,50.20
2019-05-20T04:43:54.398Z,49.70
2019-05-20T04:46:26.133Z,49.10
2019-05-20T04:48:57.966Z,49.20
2019-05-20T04:51:32.378Z,49.70
2019-05-20T04:54:04.223Z,48.80
2019-05-20T04:56:36.067Z,48.10
2019-05-20T04:59:07.286Z,48.60
2019-05-20T05:01:42.681Z,47.10
2019-05-20T05:10:28.829Z,46.00
2019-05-20T05:12:59.961Z,48.00
2019-05-20T05:15:31.310Z,47.90
2019-05-20T05:18:02.510Z,48.00
2019-05-20T05:20:33.726Z,46.70
2019-05-20T05:23:05.265Z,47.20
2019-05-20T05:25:37.590Z,46.80
2019-05-20T05:28:11.244Z,45.50
2019-05-20T05:30:43.313Z,47.10
2019-05-20T05:33:14.571Z,48.00
2019-05-20T05:35:53.319Z,47.60
2019-05-20T05:38:19.853Z,48.50
2019-05-20T05:40:51.913Z,47.40
2019-05-20T05:43:23.004Z,45.30
2019-05-20T05:45:53.987Z,43.40
2019-05-20T05:48:26.404Z,46.20
2019-05-20T05:51:01.255Z,46.00
2019-05-20T05:53:32.168Z,45.30
2019-05-20T05:56:04.233Z,44.00
2019-05-20T05:58:35.352Z,44.40
2019-05-20T06:01:12.735Z,43.50
2019-05-20T06:03:44.765Z,46.20
2019-05-20T06:06:15.939Z,46.10
2019-05-20T06:08:46.998Z,46.50
2019-05-20T06:11:24.298Z,46.80
2019-05-20T06:14:13.865Z,46.10
2019-05-20T06:16:46.266Z,44.10
2019-05-20T06:19:17.525Z,45.20
2019-05-20T06:21:55.576Z,45.10
2019-05-20T06:24:34.394Z,45.20
2019-05-20T06:27:05.343Z,45.80
2019-05-20T06:29:36.738Z,46.10
2019-05-20T06:32:10.759Z,45.70
2019-05-20T06:34:42.984Z,45.90
2019-05-20T06:37:16.743Z,45.60
2019-05-20T06:39:50.744Z,44.30
2019-05-20T06:42:20.191Z,45.00
2019-05-20T06:44:53.885Z,45.30
2019-05-20T06:47:24.418Z,46.10
2019-05-20T06:49:57.864Z,45.60
2019-05-20T06:52:35.898Z,45.90
2019-05-20T06:55:10.367Z,46.40
2019-05-20T06:57:41.599Z,44.80
2019-05-20T07:00:13.385Z,46.00
2019-05-20T07:02:44.805Z,46.00
2019-05-20T07:05:16.119Z,45.50
2019-05-20T07:07:47.123Z,45.30
2019-05-20T07:10:21.737Z,44.70
2019-05-20T07:12:53.150Z,44.90
2019-05-20T07:15:24.459Z,44.70
2019-05-20T07:17:55.549Z,43.50
2019-05-20T07:20:26.527Z,45.20
2019-05-20T07:22:57.663Z,46.10
2019-05-20T07:25:31.927Z,45.40
2019-05-20T07:28:05.536Z,45.00
2019-05-20T07:30:36.967Z,46.40
2019-05-20T07:33:07.985Z,46.30
2019-05-20T07:35:38.849Z,46.40
2019-05-20T07:38:09.897Z,46.40
2019-05-20T07:40:55.506Z,46.30
2019-05-20T07:43:30.193Z,45.20
2019-05-20T07:46:02.425Z,46.00
2019-05-20T07:48:34.341Z,44.80
2019-05-20T07:51:07.162Z,45.70
2019-05-20T07:53:39.273Z,45.90
2019-05-20T07:56:12.707Z,46.20
2019-05-20T07:58:46.412Z,46.40
2019-05-20T08:01:18.223Z,46.10
2019-05-20T08:03:49.713Z,46.10
2019-05-20T08:06:22.549Z,46.00
2019-05-20T08:08:53.007Z,45.80
2019-05-20T08:11:27.760Z,46.00
2019-05-20T08:14:02.283Z,46.50
2019-05-20T08:16:34.410Z,46.20
2019-05-20T08:19:06.579Z,46.00
2019-05-20T08:21:39.995Z,45.50
2019-05-20T08:24:11.624Z,44.00
2019-05-20T08:26:43.056Z,45.60
2019-05-20T08:29:15.119Z,42.80
2019-05-20T08:31:46.185Z,44.70
2019-05-20T08:34:17.356Z,45.60
2019-05-20T08:43:10.030Z,45.40
2019-05-20T08:45:43.351Z,44.60
2019-05-20T08:48:44.301Z,44.60
2019-05-20T08:50:46.628Z,44.30
2019-05-20T08:53:20.237Z,44.40
2019-05-20T08:55:51.624Z,45.20
2019-05-20T08:58:22.622Z,43.60
2019-05-20T09:00:54.021Z,44.40
2019-05-20T09:03:29.983Z,44.80
2019-05-20T09:06:01.561Z,44.90
2019-05-20T09:08:32.621Z,44.30
2019-05-20T09:11:06.734Z,44.90
2019-05-20T09:13:43.163Z,44.60
2019-05-20T09:16:17.498Z,43.20
2019-05-20T09:18:48.305Z,44.00
2019-05-20T09:21:19.476Z,44.10
2019-05-20T09:23:52.285Z,43.30
2019-05-20T09:26:26.268Z,43.20
2019-05-20T09:28:57.295Z,44.00
2019-05-20T09:31:28.841Z,44.60
2019-05-20T09:34:06.611Z,44.40
2019-05-20T09:36:37.280Z,41.90
2019-05-20T09:39:10.100Z,43.70
2019-05-20T09:41:44.695Z,43.00
2019-05-20T09:44:23.989Z,43.90
2019-05-20T09:46:57.017Z,43.60
2019-05-20T09:49:29.106Z,43.90
2019-05-20T09:52:06.545Z,42.30
2019-05-20T09:54:39.421Z,43.80
2019-05-20T09:57:11.068Z,44.00
2019-05-20T09:59:47.212Z,44.30
2019-05-20T10:02:18.799Z,44.40
2019-05-20T10:04:49.805Z,44.50
2019-05-20T10:07:23.629Z,44.50
2019-05-20T10:09:57.546Z,43.70
2019-05-20T10:12:44.675Z,42.80
2019-05-20T10:15:01.680Z,44.40
2019-05-20T10:17:32.606Z,44.00
2019-05-20T10:20:09.049Z,44.50
2019-05-20T10:22:40.378Z,44.50
2019-05-20T10:25:11.679Z,42.20
2019-05-20T10:27:44.782Z,43.70
2019-05-20T10:30:15.274Z,44.40
2019-05-20T10:32:46.522Z,44.70
2019-05-20T10:35:17.536Z,44.70
2019-05-20T10:37:48.709Z,44.50
2019-05-20T10:40:19.817Z,43.60
2019-05-20T10:42:51.227Z,43.20
2019-05-20T10:45:23.325Z,43.70
2019-05-20T10:47:54.356Z,43.40
2019-05-20T10:50:25.431Z,44.70
2019-05-20T10:52:56.642Z,44.80
2019-05-20T10:55:27.805Z,43.60
2019-05-20T10:57:58.706Z,44.90
2019-05-20T11:00:33.080Z,45.10
2019-05-20T11:03:08.501Z,44.90
2019-05-20T11:05:49.024Z,44.90
2019-05-20T11:08:20.024Z,44.70
2019-05-20T11:10:51.430Z,45.00
2019-05-20T11:13:22.456Z,45.60
2019-05-20T11:15:59.976Z,45.60
2019-05-20T11:18:31.252Z,45.60
2019-05-20T11:21:02.190Z,45.30
2019-05-20T11:23:33.249Z,45.60
2019-05-20T11:26:04.686Z,45.90
2019-05-20T11:28:37.477Z,45.70
2019-05-20T11:31:08.329Z,45.20
2019-05-20T11:33:39.245Z,45.50
2019-05-20T11:36:10.428Z,45.50
2019-05-20T11:38:41.387Z,45.70
2019-05-20T11:41:12.686Z,46.10
2019-05-20T11:43:43.700Z,45.60
2019-05-20T11:46:15.549Z,45.90
2019-05-20T11:48:47.838Z,46.00
2019-05-20T11:51:18.962Z,46.10
2019-05-20T11:53:50.077Z,46.10
2019-05-20T11:56:21.005Z,46.30
2019-05-20T11:58:51.975Z,47.30
2019-05-20T12:01:22.853Z,46.60
2019-05-20T12:03:57.418Z,46.50
2019-05-20T12:06:28.389Z,46.70
2019-05-20T12:08:59.263Z,46.90
2019-05-20T12:11:30.343Z,46.80
2019-05-20T12:14:01.314Z,47.00
2019-05-20T12:16:32.446Z,47.10
2019-05-20T12:19:03.381Z,47.20
2019-05-20T12:21:35.734Z,47.40
2019-05-20T12:24:06.887Z,47.30
2019-05-20T12:26:37.702Z,47.40
2019-05-20T12:29:08.829Z,47.60
2019-05-20T12:31:39.836Z,47.50
2019-05-20T12:34:10.834Z,47.60
2019-05-20T12:36:42.111Z,47.60
2019-05-20T12:39:13.290Z,47.70
2019-05-20T12:41:44.157Z,47.70
2019-05-20T12:44:15.327Z,47.80
2019-05-20T12:46:46.447Z,47.90
2019-05-20T12:49:17.850Z,47.80
2019-05-20T12:51:48.937Z,47.80
2019-05-20T12:54:19.907Z,47.90
2019-05-20T12:56:50.981Z,47.90
2019-05-20T12:59:21.945Z,47.90
2019-05-20T13:01:52.970Z,48.00
2019-05-20T13:04:24.008Z,48.00
2019-05-20T13:06:55.098Z,47.90
2019-05-20T13:09:26.129Z,48.20
2019-05-20T13:11:57.180Z,48.30
2019-05-20T13:14:28.388Z,48.50
2019-05-20T13:16:59.438Z,48.90
2019-05-20T13:19:30.535Z,48.40
2019-05-20T13:22:01.605Z,48.60
2019-05-20T13:24:33.378Z,48.60
2019-05-20T13:27:04.589Z,48.70
2019-05-20T13:29:35.586Z,48.70
2019-05-20T13:32:06.865Z,48.80
2019-05-20T13:34:37.875Z,48.90
2019-05-20T13:37:08.882Z,48.90
2019-05-20T13:39:41.502Z,49.10
2019-05-20T13:42:12.395Z,49.10
2019-05-20T13:44:43.952Z,49.20
2019-05-20T13:47:15.063Z,49.30
2019-05-20T13:49:46.009Z,49.40
2019-05-20T13:52:17.177Z,49.50
2019-05-20T13:54:48.986Z,49.50
2019-05-20T13:57:20.013Z,49.50
2019-05-20T13:59:51.199Z,49.70
2019-05-20T14:02:30.724Z,49.70
2019-05-20T14:05:01.706Z,49.70
2019-05-20T14:07:32.828Z,49.80
2019-05-20T14:10:03.965Z,49.90
2019-05-20T14:12:35.230Z,49.90
2019-05-20T14:15:07.954Z,49.90
2019-05-20T14:17:39.379Z,50.00
2019-05-20T14:20:10.590Z,50.20
2019-05-20T14:22:41.648Z,50.20
2019-05-20T14:25:12.898Z,50.20
2019-05-20T14:27:43.829Z,50.10
2019-05-20T14:30:14.990Z,50.60
2019-05-20T14:32:46.193Z,50.30
2019-05-20T14:35:17.494Z,50.30
2019-05-20T14:37:48.424Z,50.40
2019-05-20T14:40:19.615Z,51.00
2019-05-20T14:42:51.021Z,50.60
2019-05-20T14:45:23.123Z,50.90
2019-05-20T14:47:54.083Z,50.90
2019-05-20T14:50:24.748Z,51.80
2019-05-20T14:52:55.813Z,51.60
2019-05-20T14:55:26.938Z,51.70
2019-05-20T14:57:57.972Z,51.90
2019-05-20T15:00:29.095Z,52.20
2019-05-20T15:03:00.011Z,53.20
2019-05-20T15:05:31.339Z,53.30
2019-05-20T15:08:02.757Z,53.30
2019-05-20T15:10:34.153Z,52.60
2019-05-20T15:13:05.159Z,53.00
2019-05-20T15:15:36.400Z,53.00
2019-05-20T15:18:07.401Z,54.60
2019-05-20T15:20:39.110Z,53.80
2019-05-20T15:23:10.839Z,54.10
2019-05-20T15:25:42.264Z,53.70
2019-05-20T15:28:13.109Z,53.40
2019-05-20T15:30:43.948Z,54.20
2019-05-20T15:33:15.011Z,55.60
2019-05-20T15:35:46.165Z,54.20
2019-05-20T15:38:16.956Z,53.80
2019-05-20T15:40:47.992Z,54.80
2019-05-20T15:43:19.154Z,54.70
2019-05-20T15:45:49.886Z,55.00
2019-05-20T15:48:20.961Z,54.20
2019-05-20T15:50:52.231Z,54.50
2019-05-20T15:53:22.907Z,54.10
2019-05-20T15:55:54.090Z,53.90
2019-05-20T15:58:25.357Z,54.00
2019-05-20T16:00:56.229Z,54.40
2019-05-20T16:03:27.507Z,54.20
2019-05-20T16:06:00.036Z,54.10
2019-05-20T16:08:30.807Z,54.00
2019-05-20T16:11:02.278Z,55.00
2019-05-20T16:13:34.514Z,54.00
2019-05-20T16:16:05.694Z,54.70
2019-05-20T16:18:36.794Z,55.00
2019-05-20T16:21:07.645Z,54.90
2019-05-20T16:23:38.920Z,54.40
2019-05-20T16:26:09.804Z,54.70
2019-05-20T16:28:40.891Z,54.90
2019-05-20T16:31:12.380Z,55.00
2019-05-20T16:33:43.516Z,55.70
2019-05-20T16:36:14.510Z,55.60
2019-05-20T16:38:45.425Z,56.50
2019-05-20T16:41:16.370Z,55.20
2019-05-20T16:43:47.558Z,55.20
2019-05-20T16:46:18.796Z,55.30
2019-05-20T16:48:49.675Z,54.80
2019-05-20T16:51:22.420Z,55.70
2019-05-20T16:53:52.898Z,56.10
2019-05-20T16:56:23.998Z,55.60
2019-05-20T16:58:55.038Z,55.30
2019-05-20T17:01:26.060Z,56.10
2019-05-20T17:03:57.233Z,56.00
2019-05-20T17:06:27.847Z,55.30
2019-05-20T17:08:59.345Z,56.20
2019-05-20T17:11:30.583Z,55.60
2019-05-20T17:14:02.511Z,56.10
2019-05-20T17:16:33.524Z,55.80
2019-05-20T17:19:04.617Z,56.40
2019-05-20T17:21:35.828Z,55.80
2019-05-20T17:24:07.278Z,55.80
2019-05-20T17:26:38.368Z,56.50
2019-05-20T17:29:09.467Z,56.00
2019-05-20T17:31:40.674Z,57.40
2019-05-20T17:34:11.634Z,56.80
2019-05-20T17:36:42.406Z,56.90
2019-05-20T17:39:13.616Z,56.60
2019-05-20T17:41:44.453Z,57.20
2019-05-20T17:44:15.652Z,56.60
2019-05-20T17:46:46.573Z,56.50
2019-05-20T17:49:17.706Z,57.20
2019-05-20T17:51:48.867Z,56.90
2019-05-20T17:54:19.883Z,56.80
2019-05-20T17:56:50.928Z,57.30
2019-05-20T17:59:21.846Z,57.80
2019-05-20T18:01:52.974Z,57.60
2019-05-20T18:04:24.186Z,57.60
2019-05-20T18:06:55.007Z,58.10
2019-05-20T18:09:27.331Z,58.30
2019-05-20T18:11:58.872Z,57.90
2019-05-20T18:14:29.631Z,57.50
2019-05-20T18:17:01.874Z,57.50
2019-05-20T18:19:33.138Z,57.40
2019-05-20T18:22:03.970Z,58.50
2019-05-20T18:24:35.033Z,57.90
2019-05-20T18:27:06.384Z,59.00
2019-05-20T18:29:37.217Z,57.80
2019-05-20T18:32:08.245Z,58.40
2019-05-20T18:34:39.323Z,58.80
2019-05-20T18:37:10.346Z,58.70
2019-05-20T18:39:41.134Z,59.70
2019-05-20T18:42:12.227Z,58.60
2019-05-20T18:44:43.195Z,58.00
2019-05-20T18:47:14.079Z,58.40
2019-05-20T18:49:45.320Z,59.10
2019-05-20T18:52:16.382Z,59.20
2019-05-20T18:54:47.240Z,59.90
2019-05-20T18:57:18.642Z,58.60
2019-05-20T18:59:49.559Z,58.90
2019-05-20T19:02:20.628Z,57.90
2019-05-20T19:04:51.652Z,59.50
2019-05-20T19:07:22.598Z,59.10
2019-05-20T19:09:53.470Z,59.10
2019-05-20T19:12:24.524Z,58.40
2019-05-20T19:14:55.551Z,59.00
2019-05-20T19:17:26.504Z,58.30
2019-05-20T19:19:57.659Z,59.80
2019-05-20T19:22:28.669Z,59.30
2019-05-20T19:24:59.510Z,59.00
2019-05-20T19:27:30.148Z,60.00
2019-05-20T19:30:01.244Z,59.10
2019-05-20T19:32:32.560Z,59.00
2019-05-20T19:35:04.800Z,58.70
2019-05-20T19:37:36.014Z,59.70
2019-05-20T19:40:08.674Z,59.50
2019-05-20T19:42:40.027Z,60.10
2019-05-20T19:45:11.621Z,59.20
2019-05-20T19:47:42.782Z,59.10
2019-05-20T19:50:14.266Z,58.90
2019-05-20T19:52:45.017Z,58.80
2019-05-20T19:55:18.848Z,59.80
2019-05-20T19:57:48.687Z,60.10
2019-05-20T20:00:21.022Z,59.30
2019-05-20T20:02:52.017Z,58.80
2019-05-20T20:05:23.161Z,60.00
2019-05-20T20:07:54.483Z,60.00
2019-05-20T20:10:25.677Z,60.80
2019-05-20T20:12:56.618Z,59.30
2019-05-20T20:15:27.585Z,59.60
2019-05-20T20:17:58.711Z,59.30
2019-05-20T20:20:29.881Z,59.50
2019-05-20T20:23:01.410Z,59.70
2019-05-20T20:25:32.435Z,62.50
2019-05-20T20:28:03.690Z,60.20
2019-05-20T20:30:34.510Z,62.50
2019-05-20T20:33:05.743Z,62.10
2019-05-20T20:35:38.313Z,63.40
2019-05-20T20:38:09.014Z,61.40
2019-05-20T20:40:40.163Z,61.80
2019-05-20T20:43:10.974Z,64.00
2019-05-20T20:45:42.047Z,63.20
2019-05-20T20:48:14.678Z,62.70
2019-05-20T20:50:45.954Z,62.30
2019-05-20T20:53:17.365Z,63.70
2019-05-20T20:55:48.597Z,61.30
2019-05-20T20:58:19.740Z,61.80
2019-05-20T21:00:50.516Z,62.60
2019-05-20T21:03:21.631Z,62.80
2019-05-20T21:05:52.538Z,63.30
2019-05-20T21:08:23.453Z,63.30
2019-05-20T21:10:54.684Z,63.90
2019-05-20T21:13:25.917Z,65.20
2019-05-20T21:15:58.545Z,62.40
2019-05-20T21:18:29.014Z,65.30
2019-05-20T21:21:00.206Z,65.50
2019-05-20T21:23:31.105Z,64.40
2019-05-20T21:26:02.230Z,64.20
2019-05-20T21:28:36.173Z,63.80
2019-05-20T21:31:07.380Z,63.00
2019-05-20T21:33:38.422Z,62.50
2019-05-20T21:36:10.279Z,62.10
2019-05-20T21:38:41.362Z,63.30
2019-05-20T21:41:12.337Z,64.70
2019-05-20T21:43:43.292Z,64.00
2019-05-20T21:46:14.112Z,64.10
2019-05-20T21:48:45.004Z,63.00
2019-05-20T21:51:15.948Z,63.20
2019-05-20T21:53:47.246Z,63.90
2019-05-20T21:56:18.196Z,64.20
2019-05-20T21:58:49.141Z,63.90
2019-05-20T22:01:20.282Z,65.30
2019-05-20T22:03:52.066Z,66.10
2019-05-20T22:06:23.404Z,63.70
2019-05-20T22:08:54.434Z,63.80
2019-05-20T22:11:25.249Z,64.40
2019-05-20T22:13:56.135Z,65.50
2019-05-20T22:16:29.747Z,65.40
2019-05-20T22:19:00.485Z,64.60
2019-05-20T22:21:32.517Z,64.30
2019-05-20T22:24:05.009Z,64.20
2019-05-20T22:26:36.003Z,64.30
2019-05-20T22:29:07.133Z,63.80
2019-05-20T22:31:39.226Z,64.70
2019-05-20T22:34:10.516Z,65.20
2019-05-20T22:36:41.368Z,65.70
2019-05-20T22:39:12.154Z,65.30
2019-05-20T22:41:43.412Z,66.10
2019-05-20T22:44:14.466Z,66.60
2019-05-20T22:46:45.425Z,66.60
2019-05-20T22:49:16.467Z,66.60
2019-05-20T22:51:47.565Z,64.90
2019-05-20T22:54:18.658Z,66.60
2019-05-20T22:56:49.788Z,67.00
2019-05-20T22:59:20.848Z,65.40
2019-05-20T23:01:51.842Z,64.00
2019-05-20T23:04:22.982Z,64.50
2019-05-20T23:06:55.198Z,64.60
2019-05-20T23:09:26.069Z,64.10
2019-05-20T23:11:57.143Z,64.40
2019-05-20T23:14:28.138Z,64.80
2019-05-20T23:16:59.079Z,64.90
2019-05-20T23:19:29.999Z,64.60
2019-05-20T23:22:01.103Z,65.90
2019-05-20T23:24:32.264Z,64.80
2019-05-20T23:27:04.247Z,64.30
2019-05-20T23:29:34.879Z,65.70
2019-05-20T23:32:06.853Z,65.10
2019-05-20T23:34:38.140Z,65.10
2019-05-20T23:37:09.116Z,64.90
2019-05-20T23:39:40.052Z,65.00
2019-05-20T23:42:11.235Z,64.60
2019-05-20T23:44:42.253Z,64.10
2019-05-20T23:47:13.425Z,63.90
2019-05-20T23:49:54.813Z,64.10
2019-05-20T23:52:25.475Z,63.90
2019-05-20T23:54:56.357Z,64.20
2019-05-20T23:57:27.411Z,63.80
2019-05-20T23:59:58.483Z,63.60
